Virgo Phoenix — 3FMO8 — position and weather

sailwx.info

Track history (hours):
 
Tides and Currents Weather Stations Pressure Air Temp Water Temp Dewpoint Dewpoint Depression Visibility Wind Speed Wind Dir Waves Ship Positions

Virgo Phoenix

Last reported at 2017-Feb-05 02:33 UTC. Time now 2017-Feb-24 03:52 UTC.
Position N 31°04' E 122°06'.
Warning: this ship's position is 19 days out of date.

Length 96 m; draft 5 m.

Type: Ship (hazmat cat C). MMSI: 370795000.

Date/timePositionNaut miles runAvg speedWind from/ knotsBaromVisibWave heightAir tempDewpointWater temp
2017-Feb-05 02:33N 31°04' E 122°06'1414.3
2017-Feb-05 01:33N 31°10' E 121°51'1414.1
2017-Feb-05 00:33N 31°21' E 121°40'1010.4
2017-Feb-04 23:33N 31°26' E 121°29'8 7.6
2017-Feb-04 22:33N 31°31' E 121°23'4 3.5
2017-Feb-04 21:32N 31°34' E 121°20'0 0.1
2017-Feb-04 20:32N 31°34' E 121°20'0 0.0
2017-Feb-04 19:32N 31°34' E 121°20'0 0.0
2017-Feb-04 18:32N 31°34' E 121°20'0 0.0
2017-Feb-04 17:32N 31°34' E 121°20'0 0.0
2017-Feb-04 16:32N 31°34' E 121°20'0 0.0
2017-Feb-04 15:32N 31°34' E 121°20'0 0.0
2017-Feb-04 14:32N 31°34' E 121°20'0 0.0
2017-Feb-04 13:20N 31°34' E 121°20'0 0.0
2017-Feb-04 12:32N 31°34' E 121°20'0 0.1
2017-Feb-04 11:32N 31°34' E 121°20'0 0.1
2017-Feb-04 10:32N 31°34' E 121°20'0 0.0
2017-Feb-04 09:32N 31°34' E 121°20'0 0.0
2017-Feb-04 08:32N 31°34' E 121°20'0 0.1
2017-Feb-04 07:32N 31°34' E 121°20'0 0.0
2017-Feb-04 06:32N 31°34' E 121°20'0 0.0
2017-Feb-04 05:32N 31°34' E 121°20'6 6.1
2017-Feb-04 04:33N 31°38' E 121°15'1513.8
2017-Feb-04 03:30N 31°46' E 121°01'3210.1
2017-Feb-04 00:23N 31°60' E 120°27'1 0.1
2017-Feb-03 03:09N 31°58' E 120°27'51 1.7
2017-Feb-01 20:27N 31°35' E 121°20'0 0.0
2017-Feb-01 19:33N 31°35' E 121°20'0 0.0
2017-Feb-01 18:33N 31°35' E 121°20'0 0.1
2017-Feb-01 17:15N 31°35' E 121°20'0 0.0
2017-Feb-01 12:30N 31°35' E 121°20'0 0.0
2017-Feb-01 11:27N 31°35' E 121°20'0 0.0
2017-Feb-01 10:30N 31°35' E 121°20'0 0.1
2017-Feb-01 09:33N 31°35' E 121°20'0 0.1
2017-Feb-01 08:27N 31°35' E 121°20'5 5.3
2017-Feb-01 07:31N 31°31' E 121°24'1010.5
2017-Feb-01 06:31N 31°24' E 121°33'  
2017-Jan-28 11:30N 35°09' E 139°44'1112.0
2017-Jan-28 10:34N 35°20' E 139°43'1312.9
2017-Jan-28 09:34N 35°30' E 139°53'9 0.8
2017-Jan-27 23:18N 35°32' E 140°03'2 0.6
2017-Jan-27 20:29N 35°33' E 140°02'0 0.0
2017-Jan-27 19:32N 35°33' E 140°02'0 0.0
2017-Jan-27 18:08N 35°33' E 140°02'0 0.0
2017-Jan-27 16:17N 35°33' E 140°02'0 0.0
2017-Jan-27 15:32N 35°33' E 140°02'0 0.0
2017-Jan-27 13:31N 35°33' E 140°02'0 0.0
2017-Jan-27 10:32N 35°33' E 140°02'0 0.0
2017-Jan-27 09:33N 35°33' E 140°02'0 0.0
2017-Jan-27 08:08N 35°33' E 140°02'0 0.0
2017-Jan-27 06:33N 35°33' E 140°02'0 0.0
2017-Jan-27 05:26N 35°33' E 140°02'2 0.3
2017-Jan-26 23:32N 35°32' E 140°03'2 2.0
2017-Jan-26 22:33N 35°33' E 140°02'0 0.0
2017-Jan-26 21:26N 35°33' E 140°02'2 2.6
2017-Jan-26 20:33N 35°32' E 139°59'1413.9
2017-Jan-26 19:33N 35°24' E 139°46'1211.8
2017-Jan-26 18:33N 35°12' E 139°47'10 1.2
2017-Jan-26 10:10N 35°03' E 139°43'912.7
2017-Jan-26 09:27N 35°11' E 139°46'910.4
2017-Jan-26 08:33N 35°20' E 139°42'4 4.0
2017-Jan-26 07:33N 35°23' E 139°39'0 0.0
2017-Jan-26 06:33N 35°23' E 139°39'0 0.0
2017-Jan-26 05:33N 35°23' E 139°39'0 0.0
2017-Jan-26 04:33N 35°23' E 139°39'4 3.8
2017-Jan-26 03:33N 35°25' E 139°43'7 7.0
2017-Jan-26 02:33N 35°32' E 139°46'  
Track history (hours):
 
Tides and Currents Weather Stations Pressure Air Temp Water Temp Dewpoint Dewpoint Depression Visibility Wind Speed Wind Dir Waves Ship Positions

Virgo Phoenix

Last reported at 2017-Feb-05 02:33 UTC. Time now 2017-Feb-24 03:52 UTC.
Position N 31°04' E 122°06'.
Warning: this ship's position is 19 days out of date.

Length 96 m; draft 5 m.

Type: Ship (hazmat cat C). MMSI: 370795000.

Date/timePositionNaut miles runAvg speedWind from/ knotsBaromVisibWave heightAir tempDewpointWater temp
2017-Feb-05 02:33N 31°04' E 122°06'1414.3
2017-Feb-05 01:33N 31°10' E 121°51'1414.1
2017-Feb-05 00:33N 31°21' E 121°40'1010.4
2017-Feb-04 23:33N 31°26' E 121°29'8 7.6
2017-Feb-04 22:33N 31°31' E 121°23'4 3.5
2017-Feb-04 21:32N 31°34' E 121°20'0 0.1
2017-Feb-04 20:32N 31°34' E 121°20'0 0.0
2017-Feb-04 19:32N 31°34' E 121°20'0 0.0
2017-Feb-04 18:32N 31°34' E 121°20'0 0.0
2017-Feb-04 17:32N 31°34' E 121°20'0 0.0
2017-Feb-04 16:32N 31°34' E 121°20'0 0.0
2017-Feb-04 15:32N 31°34' E 121°20'0 0.0
2017-Feb-04 14:32N 31°34' E 121°20'0 0.0
2017-Feb-04 13:20N 31°34' E 121°20'0 0.0
2017-Feb-04 12:32N 31°34' E 121°20'0 0.1
2017-Feb-04 11:32N 31°34' E 121°20'0 0.1
2017-Feb-04 10:32N 31°34' E 121°20'0 0.0
2017-Feb-04 09:32N 31°34' E 121°20'0 0.0
2017-Feb-04 08:32N 31°34' E 121°20'0 0.1
2017-Feb-04 07:32N 31°34' E 121°20'0 0.0
2017-Feb-04 06:32N 31°34' E 121°20'0 0.0
2017-Feb-04 05:32N 31°34' E 121°20'6 6.1
2017-Feb-04 04:33N 31°38' E 121°15'1513.8
2017-Feb-04 03:30N 31°46' E 121°01'3210.1
2017-Feb-04 00:23N 31°60' E 120°27'1 0.1
2017-Feb-03 03:09N 31°58' E 120°27'51 1.7
2017-Feb-01 20:27N 31°35' E 121°20'0 0.0
2017-Feb-01 19:33N 31°35' E 121°20'0 0.0
2017-Feb-01 18:33N 31°35' E 121°20'0 0.1
2017-Feb-01 17:15N 31°35' E 121°20'0 0.0
2017-Feb-01 12:30N 31°35' E 121°20'0 0.0
2017-Feb-01 11:27N 31°35' E 121°20'0 0.0
2017-Feb-01 10:30N 31°35' E 121°20'0 0.1
2017-Feb-01 09:33N 31°35' E 121°20'0 0.1
2017-Feb-01 08:27N 31°35' E 121°20'5 5.3
2017-Feb-01 07:31N 31°31' E 121°24'1010.5
2017-Feb-01 06:31N 31°24' E 121°33'  
2017-Jan-28 11:30N 35°09' E 139°44'1112.0
2017-Jan-28 10:34N 35°20' E 139°43'1312.9
2017-Jan-28 09:34N 35°30' E 139°53'9 0.8
2017-Jan-27 23:18N 35°32' E 140°03'2 0.6
2017-Jan-27 20:29N 35°33' E 140°02'0 0.0
2017-Jan-27 19:32N 35°33' E 140°02'0 0.0
2017-Jan-27 18:08N 35°33' E 140°02'0 0.0
2017-Jan-27 16:17N 35°33' E 140°02'0 0.0
2017-Jan-27 15:32N 35°33' E 140°02'0 0.0
2017-Jan-27 13:31N 35°33' E 140°02'0 0.0
2017-Jan-27 10:32N 35°33' E 140°02'0 0.0
2017-Jan-27 09:33N 35°33' E 140°02'0 0.0
2017-Jan-27 08:08N 35°33' E 140°02'0 0.0
2017-Jan-27 06:33N 35°33' E 140°02'0 0.0
2017-Jan-27 05:26N 35°33' E 140°02'2 0.3
2017-Jan-26 23:32N 35°32' E 140°03'2 2.0
2017-Jan-26 22:33N 35°33' E 140°02'0 0.0
2017-Jan-26 21:26N 35°33' E 140°02'2 2.6
2017-Jan-26 20:33N 35°32' E 139°59'1413.9
2017-Jan-26 19:33N 35°24' E 139°46'1211.8
2017-Jan-26 18:33N 35°12' E 139°47'10 1.2
2017-Jan-26 10:10N 35°03' E 139°43'912.7
2017-Jan-26 09:27N 35°11' E 139°46'910.4
2017-Jan-26 08:33N 35°20' E 139°42'4 4.0
2017-Jan-26 07:33N 35°23' E 139°39'0 0.0
2017-Jan-26 06:33N 35°23' E 139°39'0 0.0
2017-Jan-26 05:33N 35°23' E 139°39'0 0.0
2017-Jan-26 04:33N 35°23' E 139°39'4 3.8
2017-Jan-26 03:33N 35°25' E 139°43'7 7.0
2017-Jan-26 02:33N 35°32' E 139°46'  

Dump ship's entire track history